Terminal Aerodrome Forecast
Issued by NWS

Home | Current Version | Previous Version | Graphics & Text | Print | Product List | Glossary On
Versions: 1 2 3 4 5 6 7 8 9 10 11 12 13 14 15 16 17 18 19 20 21 22 23 24 25
000
FTUS43 KABR 210522
TAFATY
TAF
KATY 210522Z 2106/2206 36013KT 4SM BR OVC006
     FM211000 32014G20KT P6SM -RA OVC007
     FM211800 31020G30KT P6SM BKN040
     FM220200 VRB05KT P6SM OVC050=

USA.gov is the U.S. government's official web portal to all federal, state and local government web resources and services.